PWSweather.com
Personal Weather Stations
Station Observations
KA1WBH
West Island, Fairhaven, MA 02719

West IslandFairhaven, MA 02719

Lat: 41.5979996, Lon: -70.8330002

Elevation: 78

Station Type: Davis Vantage Pro II

Latest ConditionsUpdated 9:14:54 PM EST Friday, Nov 28, 2014
Currently Today's Max Today's Min Today's Average
Temperature 29.6°F-1.3°C 35.7°F2.1°C 29.6°F-1.3°C 31.8°F-0.1°C
Dew Point 21.7°F-5.7°C 31.1°F-0.5°C 20.5°F-6.4°C 26.6°F-3.0°C
Winds 4.0 mph NNW6.4 kmh NNW 19.0 mph NW30.6 kmh NW - 7.1 mph 11.4 kmh
Wind Gusts 13.0 mph20.9 kmh 21.0 mph33.8 kmh - -
Humidity 72% 96% 61% 82%
Pressure 30.20 in1022.7 mb 30.20 in1022.7 mb 29.98 in1015.2 mb -
Hour Temp Dew Point Humidity Winds Wind Gusts Pressure Precip Precip Rate Daily Precip Total
09:14 PM 29.6°F-1.3°C 21.7°F-5.7°C 72% 4.0 mph NNW6.4 kmh NNW 13.0 mph20.9 kmh 30.20 in1022.7 mb 0.00 in0.0 mm 0.00 in/hr0.0 mm/hr 0.01 in0.3 mm
09:00 PM 29.8°F-1.2°C 21.9°F-5.6°C 72% 10.0 mph NW16.1 kmh NW 15.0 mph24.1 kmh 30.20 in1022.7 mb 0.00 in0.0 mm 0.00 in/hr0.0 mm/hr 0.01 in0.3 mm
08:45 PM 30.0°F-1.1°C 22.1°F-5.5°C 72% 3.0 mph NW4.8 kmh NW 12.0 mph19.3 kmh 30.20 in1022.7 mb 0.00 in0.0 mm 0.00 in/hr0.0 mm/hr 0.01 in0.3 mm
08:30 PM 30.2°F-1.0°C 21.6°F-5.8°C 70% 6.0 mph NW9.7 kmh NW 10.0 mph16.1 kmh 30.20 in1022.7 mb 0.00 in0.0 mm 0.00 in/hr0.0 mm/hr 0.01 in0.3 mm
08:15 PM 30.5°F-0.8°C 21.6°F-5.8°C 69% Calm Calm 14.0 mph22.5 kmh 30.20 in1022.7 mb 0.00 in0.0 mm 0.00 in/hr0.0 mm/hr 0.01 in0.3 mm
08:00 PM 30.7°F-0.7°C 21.4°F-5.9°C 68% 6.0 mph NW9.7 kmh NW 11.0 mph17.7 kmh 30.19 in1022.4 mb 0.00 in0.0 mm 0.00 in/hr0.0 mm/hr 0.01 in0.3 mm
07:45 PM 30.8°F-0.7°C 21.5°F-5.8°C 68% 8.0 mph NW12.9 kmh NW 11.0 mph17.7 kmh 30.19 in1022.4 mb 0.00 in0.0 mm 0.00 in/hr0.0 mm/hr 0.01 in0.3 mm
07:30 PM 31.2°F-0.4°C 20.8°F-6.2°C 65% 10.0 mph NW16.1 kmh NW 15.0 mph24.1 kmh 30.19 in1022.4 mb 0.00 in0.0 mm 0.00 in/hr0.0 mm/hr 0.01 in0.3 mm
07:15 PM 31.5°F-0.3°C 20.7°F-6.3°C 64% 9.0 mph NW14.5 kmh NW 16.0 mph25.7 kmh 30.18 in1022.0 mb 0.00 in0.0 mm 0.00 in/hr0.0 mm/hr 0.01 in0.3 mm
07:00 PM 31.6°F-0.2°C 20.5°F-6.4°C 63% 7.0 mph NW11.3 kmh NW 15.0 mph24.1 kmh 30.18 in1022.0 mb 0.00 in0.0 mm 0.00 in/hr0.0 mm/hr 0.01 in0.3 mm
06:45 PM 31.7°F-0.2°C 21.3°F-5.9°C 65% 6.0 mph NW9.7 kmh NW 12.0 mph19.3 kmh 30.18 in1022.0 mb 0.00 in0.0 mm 0.00 in/hr0.0 mm/hr 0.01 in0.3 mm
06:30 PM 31.9°F-0.1°C 20.8°F-6.2°C 63% 2.0 mph NW3.2 kmh NW 13.0 mph20.9 kmh 30.17 in1021.7 mb 0.00 in0.0 mm 0.00 in/hr0.0 mm/hr 0.01 in0.3 mm
06:15 PM 32.2°F0.1°C 21.4°F-5.9°C 64% 9.0 mph NW14.5 kmh NW 18.0 mph29.0 kmh 30.16 in1021.3 mb 0.00 in0.0 mm 0.00 in/hr0.0 mm/hr 0.01 in0.3 mm
06:00 PM 32.6°F0.3°C 21.8°F-5.7°C 64% 9.0 mph NNW14.5 kmh NNW 14.0 mph22.5 kmh 30.16 in1021.3 mb 0.00 in0.0 mm 0.00 in/hr0.0 mm/hr 0.01 in0.3 mm
05:45 PM 32.5°F0.3°C 23.8°F-4.6°C 70% 7.0 mph W11.3 kmh W 11.0 mph17.7 kmh 30.15 in1021.0 mb 0.00 in0.0 mm 0.00 in/hr0.0 mm/hr 0.01 in0.3 mm
05:30 PM 32.7°F0.4°C 23.3°F-4.8°C 68% 2.0 mph NW3.2 kmh NW 10.0 mph16.1 kmh 30.15 in1021.0 mb 0.00 in0.0 mm 0.00 in/hr0.0 mm/hr 0.01 in0.3 mm
05:15 PM 33.0°F0.6°C 23.6°F-4.7°C 68% 5.0 mph NNW8.0 kmh NNW 10.0 mph16.1 kmh 30.14 in1020.7 mb 0.00 in0.0 mm 0.00 in/hr0.0 mm/hr 0.01 in0.3 mm
04:50 PM 33.0°F0.6°C 22.9°F-5.1°C 66% 4.0 mph NNW6.4 kmh NNW 14.0 mph22.5 kmh 30.13 in1020.3 mb 0.00 in0.0 mm 0.00 in/hr0.0 mm/hr 0.01 in0.3 mm
04:35 PM 33.4°F0.8°C 23.3°F-4.8°C 66% 4.0 mph NNW6.4 kmh NNW 11.0 mph17.7 kmh 30.12 in1020.0 mb 0.00 in0.0 mm 0.00 in/hr0.0 mm/hr 0.01 in0.3 mm
04:20 PM 33.6°F0.9°C 23.1°F-4.9°C 65% 8.0 mph NW12.9 kmh NW 12.0 mph19.3 kmh 30.12 in1020.0 mb 0.00 in0.0 mm 0.00 in/hr0.0 mm/hr 0.01 in0.3 mm
04:05 PM 34.0°F1.1°C 23.1°F-4.9°C 64% 4.0 mph NNW6.4 kmh NNW 11.0 mph17.7 kmh 30.11 in1019.6 mb 0.00 in0.0 mm 0.00 in/hr0.0 mm/hr 0.01 in0.3 mm
03:50 PM 34.3°F1.3°C 23.0°F-5.0°C 63% 11.0 mph NNW17.7 kmh NNW 15.0 mph24.1 kmh 30.10 in1019.3 mb 0.00 in0.0 mm 0.00 in/hr0.0 mm/hr 0.01 in0.3 mm
03:35 PM 34.7°F1.5°C 23.0°F-5.0°C 62% 6.0 mph N9.7 kmh N 16.0 mph25.7 kmh 30.10 in1019.3 mb 0.00 in0.0 mm 0.00 in/hr0.0 mm/hr 0.01 in0.3 mm
03:20 PM 35.0°F1.7°C 22.9°F-5.1°C 61% 11.0 mph NW17.7 kmh NW 18.0 mph29.0 kmh 30.09 in1019.0 mb 0.00 in0.0 mm 0.00 in/hr0.0 mm/hr 0.01 in0.3 mm
03:05 PM 35.0°F1.7°C 23.3°F-4.8°C 62% 5.0 mph NNW8.0 kmh NNW 16.0 mph25.7 kmh 30.09 in1019.0 mb 0.00 in0.0 mm 0.00 in/hr0.0 mm/hr 0.01 in0.3 mm
02:50 PM 35.2°F1.8°C 23.9°F-4.5°C 63% 12.0 mph NNW19.3 kmh NNW 14.0 mph22.5 kmh 30.08 in1018.6 mb 0.00 in0.0 mm 0.00 in/hr0.0 mm/hr 0.01 in0.3 mm
02:35 PM 35.4°F1.9°C 24.1°F-4.4°C 63% 7.0 mph NW11.3 kmh NW 18.0 mph29.0 kmh 30.07 in1018.3 mb 0.00 in0.0 mm 0.00 in/hr0.0 mm/hr 0.01 in0.3 mm
02:20 PM 35.6°F2.0°C 25.0°F-3.9°C 65% 3.0 mph NW4.8 kmh NW 14.0 mph22.5 kmh 30.06 in1017.9 mb 0.00 in0.0 mm 0.00 in/hr0.0 mm/hr 0.01 in0.3 mm
02:05 PM 35.6°F2.0°C 24.3°F-4.3°C 63% 9.0 mph NW14.5 kmh NW 17.0 mph27.4 kmh 30.06 in1017.9 mb 0.00 in0.0 mm 0.00 in/hr0.0 mm/hr 0.01 in0.3 mm
01:50 PM 35.7°F2.1°C 26.2°F-3.2°C 68% 3.0 mph NW4.8 kmh NW 16.0 mph25.7 kmh 30.06 in1017.9 mb 0.01 in0.3 mm 0.00 in/hr0.0 mm/hr 0.01 in0.3 mm
01:35 PM 35.4°F1.9°C 25.6°F-3.6°C 67% 8.0 mph NNW12.9 kmh NNW 16.0 mph25.7 kmh 30.06 in1017.9 mb 0.01 in0.3 mm 0.00 in/hr0.0 mm/hr 0.01 in0.3 mm
01:20 PM 35.5°F1.9°C 26.4°F-3.1°C 69% 7.0 mph W11.3 kmh W 14.0 mph22.5 kmh 30.07 in1018.3 mb 0.01 in0.3 mm 0.00 in/hr0.0 mm/hr 0.01 in0.3 mm
01:05 PM 35.6°F2.0°C 26.5°F-3.1°C 69% 9.0 mph NW14.5 kmh NW 11.0 mph17.7 kmh 30.06 in1017.9 mb 0.01 in0.3 mm 0.00 in/hr0.0 mm/hr 0.01 in0.3 mm
12:50 PM 35.1°F1.7°C 26.7°F-2.9°C 71% 7.0 mph NW11.3 kmh NW 17.0 mph27.4 kmh 30.06 in1017.9 mb 0.01 in0.3 mm 0.04 in/hr1.0 mm/hr 0.01 in0.3 mm
12:35 PM 33.8°F1.0°C 26.1°F-3.3°C 73% 14.0 mph NNE22.5 kmh NNE 18.0 mph29.0 kmh 30.06 in1017.9 mb 0.00 in0.0 mm 0.00 in/hr0.0 mm/hr 0.00 in0.0 mm
12:20 PM 33.5°F0.8°C 26.8°F-2.9°C 76% 7.0 mph N11.3 kmh N 18.0 mph29.0 kmh 30.06 in1017.9 mb 0.00 in0.0 mm 0.00 in/hr0.0 mm/hr 0.00 in0.0 mm
12:05 PM 33.3°F0.7°C 27.8°F-2.3°C 80% 3.0 mph NNW4.8 kmh NNW 17.0 mph27.4 kmh 30.06 in1017.9 mb 0.00 in0.0 mm 0.00 in/hr0.0 mm/hr 0.00 in0.0 mm
11:50 AM 32.6°F0.3°C 27.4°F-2.6°C 81% 10.0 mph NNW16.1 kmh NNW 18.0 mph29.0 kmh 30.06 in1017.9 mb 0.00 in0.0 mm 0.00 in/hr0.0 mm/hr 0.00 in0.0 mm
11:35 AM 32.4°F0.2°C 28.1°F-2.2°C 84% 12.0 mph N19.3 kmh N 17.0 mph27.4 kmh 30.06 in1017.9 mb 0.00 in0.0 mm 0.00 in/hr0.0 mm/hr 0.00 in0.0 mm
11:20 AM 31.8°F-0.1°C 27.5°F-2.5°C 84% 3.0 mph NNW4.8 kmh NNW 18.0 mph29.0 kmh 30.06 in1017.9 mb 0.00 in0.0 mm 0.00 in/hr0.0 mm/hr 0.00 in0.0 mm
11:05 AM 31.6°F-0.2°C 27.9°F-2.3°C 86% 3.0 mph NNW4.8 kmh NNW 15.0 mph24.1 kmh 30.06 in1017.9 mb 0.00 in0.0 mm 0.00 in/hr0.0 mm/hr 0.00 in0.0 mm
10:50 AM 31.3°F-0.4°C 27.6°F-2.4°C 86% 9.0 mph NW14.5 kmh NW 17.0 mph27.4 kmh 30.06 in1017.9 mb 0.00 in0.0 mm 0.00 in/hr0.0 mm/hr 0.00 in0.0 mm
10:35 AM 31.2°F-0.4°C 27.8°F-2.3°C 87% 9.0 mph NW14.5 kmh NW 19.0 mph30.6 kmh 30.06 in1017.9 mb 0.00 in0.0 mm 0.00 in/hr0.0 mm/hr 0.00 in0.0 mm
10:20 AM 31.1°F-0.5°C 28.5°F-1.9°C 90% 10.0 mph NW16.1 kmh NW 14.0 mph22.5 kmh 30.06 in1017.9 mb 0.00 in0.0 mm 0.00 in/hr0.0 mm/hr 0.00 in0.0 mm
10:05 AM 30.7°F-0.7°C 28.4°F-2.0°C 91% 12.0 mph N19.3 kmh N 20.0 mph32.2 kmh 30.06 in1017.9 mb 0.00 in0.0 mm 0.00 in/hr0.0 mm/hr 0.00 in0.0 mm
09:50 AM 30.7°F-0.7°C 28.7°F-1.8°C 92% 4.0 mph NW6.4 kmh NW 11.0 mph17.7 kmh 30.07 in1018.3 mb 0.00 in0.0 mm 0.00 in/hr0.0 mm/hr 0.00 in0.0 mm
09:40 AM 30.6°F-0.8°C 28.6°F-1.9°C 92% 10.0 mph NW16.1 kmh NW 15.0 mph24.1 kmh 30.06 in1017.9 mb 0.00 in0.0 mm 0.00 in/hr0.0 mm/hr 0.00 in0.0 mm
09:25 AM 30.4°F-0.9°C 28.6°F-1.9°C 93% 3.0 mph NW4.8 kmh NW 13.0 mph20.9 kmh 30.06 in1017.9 mb 0.00 in0.0 mm 0.00 in/hr0.0 mm/hr 0.00 in0.0 mm
09:10 AM 30.1°F-1.1°C 28.3°F-2.1°C 93% 9.0 mph NNW14.5 kmh NNW 18.0 mph29.0 kmh 30.05 in1017.6 mb 0.00 in0.0 mm 0.00 in/hr0.0 mm/hr 0.00 in0.0 mm
08:55 AM 30.1°F-1.1°C 28.3°F-2.1°C 93% 9.0 mph NNW14.5 kmh NNW 20.0 mph32.2 kmh 30.05 in1017.6 mb 0.00 in0.0 mm 0.00 in/hr0.0 mm/hr 0.00 in0.0 mm
08:40 AM 30.1°F-1.1°C 28.3°F-2.1°C 93% 9.0 mph NW14.5 kmh NW 21.0 mph33.8 kmh 30.05 in1017.6 mb 0.00 in0.0 mm 0.00 in/hr0.0 mm/hr 0.00 in0.0 mm
08:25 AM 30.3°F-0.9°C 28.5°F-1.9°C 93% 9.0 mph NW14.5 kmh NW 18.0 mph29.0 kmh 30.04 in1017.3 mb 0.00 in0.0 mm 0.00 in/hr0.0 mm/hr 0.00 in0.0 mm
08:10 AM 30.5°F-0.8°C 28.7°F-1.8°C 93% 19.0 mph NW30.6 kmh NW 19.0 mph30.6 kmh 30.03 in1016.9 mb 0.00 in0.0 mm 0.00 in/hr0.0 mm/hr 0.00 in0.0 mm
07:55 AM 30.3°F-0.9°C 28.3°F-2.1°C 92% 11.0 mph N17.7 kmh N 20.0 mph32.2 kmh 30.03 in1016.9 mb 0.00 in0.0 mm 0.00 in/hr0.0 mm/hr 0.00 in0.0 mm
07:40 AM 30.4°F-0.9°C 28.9°F-1.7°C 94% 5.0 mph NW8.0 kmh NW 17.0 mph27.4 kmh 30.02 in1016.6 mb 0.00 in0.0 mm 0.00 in/hr0.0 mm/hr 0.00 in0.0 mm
07:25 AM 30.5°F-0.8°C 29.0°F-1.7°C 94% 1.0 mph NNW1.6 kmh NNW 18.0 mph29.0 kmh 30.02 in1016.6 mb 0.00 in0.0 mm 0.00 in/hr0.0 mm/hr 0.00 in0.0 mm
07:10 AM 30.7°F-0.7°C 29.2°F-1.6°C 94% 6.0 mph NNW9.7 kmh NNW 15.0 mph24.1 kmh 30.01 in1016.3 mb 0.00 in0.0 mm 0.00 in/hr0.0 mm/hr 0.00 in0.0 mm
06:55 AM 30.6°F-0.8°C 29.1°F-1.6°C 94% 6.0 mph NW9.7 kmh NW 17.0 mph27.4 kmh 30.01 in1016.3 mb 0.00 in0.0 mm 0.00 in/hr0.0 mm/hr 0.00 in0.0 mm
06:40 AM 30.6°F-0.8°C 29.1°F-1.6°C 94% 5.0 mph NW8.0 kmh NW 13.0 mph20.9 kmh 30.01 in1016.3 mb 0.00 in0.0 mm 0.00 in/hr0.0 mm/hr 0.00 in0.0 mm
06:25 AM 30.7°F-0.7°C 29.4°F-1.4°C 95% 7.0 mph NNW11.3 kmh NNW 21.0 mph33.8 kmh 30.00 in1015.9 mb 0.00 in0.0 mm 0.00 in/hr0.0 mm/hr 0.00 in0.0 mm
06:10 AM 30.6°F-0.8°C 29.1°F-1.6°C 94% 10.0 mph NW16.1 kmh NW 13.0 mph20.9 kmh 30.00 in1015.9 mb 0.00 in0.0 mm 0.00 in/hr0.0 mm/hr 0.00 in0.0 mm
05:55 AM 30.7°F-0.7°C 29.4°F-1.4°C 95% 6.0 mph NW9.7 kmh NW 12.0 mph19.3 kmh 29.99 in1015.6 mb 0.00 in0.0 mm 0.00 in/hr0.0 mm/hr 0.00 in0.0 mm
05:40 AM 30.6°F-0.8°C 29.3°F-1.5°C 95% 9.0 mph WNW14.5 kmh WNW 14.0 mph22.5 kmh 29.99 in1015.6 mb 0.00 in0.0 mm 0.00 in/hr0.0 mm/hr 0.00 in0.0 mm
05:25 AM 30.7°F-0.7°C 29.4°F-1.4°C 95% 3.0 mph NW4.8 kmh NW 13.0 mph20.9 kmh 29.98 in1015.2 mb 0.00 in0.0 mm 0.00 in/hr0.0 mm/hr 0.00 in0.0 mm
05:10 AM 30.8°F-0.7°C 29.5°F-1.4°C 95% 11.0 mph NNW17.7 kmh NNW 14.0 mph22.5 kmh 29.98 in1015.2 mb 0.00 in0.0 mm 0.00 in/hr0.0 mm/hr 0.00 in0.0 mm
04:55 AM 30.7°F-0.7°C 29.4°F-1.4°C 95% 9.0 mph NW14.5 kmh NW 12.0 mph19.3 kmh 29.98 in1015.2 mb 0.00 in0.0 mm 0.00 in/hr0.0 mm/hr 0.00 in0.0 mm
04:40 AM 30.8°F-0.7°C 29.5°F-1.4°C 95% 6.0 mph NW9.7 kmh NW 11.0 mph17.7 kmh 29.98 in1015.2 mb 0.00 in0.0 mm 0.00 in/hr0.0 mm/hr 0.00 in0.0 mm
04:25 AM 30.8°F-0.7°C 29.5°F-1.4°C 95% 4.0 mph N6.4 kmh N 16.0 mph25.7 kmh 29.98 in1015.2 mb 0.00 in0.0 mm 0.00 in/hr0.0 mm/hr 0.00 in0.0 mm
04:10 AM 30.8°F-0.7°C 29.8°F-1.2°C 96% 5.0 mph NNW8.0 kmh NNW 12.0 mph19.3 kmh 29.98 in1015.2 mb 0.00 in0.0 mm 0.00 in/hr0.0 mm/hr 0.00 in0.0 mm
03:55 AM 30.8°F-0.7°C 29.8°F-1.2°C 96% 13.0 mph NW20.9 kmh NW 15.0 mph24.1 kmh 29.98 in1015.2 mb 0.00 in0.0 mm 0.00 in/hr0.0 mm/hr 0.00 in0.0 mm
03:40 AM 30.7°F-0.7°C 29.4°F-1.4°C 95% 6.0 mph NW9.7 kmh NW 15.0 mph24.1 kmh 29.98 in1015.2 mb 0.00 in0.0 mm 0.00 in/hr0.0 mm/hr 0.00 in0.0 mm
03:25 AM 30.6°F-0.8°C 29.6°F-1.3°C 96% 12.0 mph NW19.3 kmh NW 14.0 mph22.5 kmh 29.98 in1015.2 mb 0.00 in0.0 mm 0.00 in/hr0.0 mm/hr 0.00 in0.0 mm
03:10 AM 30.5°F-0.8°C 29.5°F-1.4°C 96% 6.0 mph NNW9.7 kmh NNW 12.0 mph19.3 kmh 29.98 in1015.2 mb 0.00 in0.0 mm 0.00 in/hr0.0 mm/hr 0.00 in0.0 mm
02:55 AM 30.6°F-0.8°C 29.6°F-1.3°C 96% 2.0 mph NNW3.2 kmh NNW 12.0 mph19.3 kmh 29.98 in1015.2 mb 0.00 in0.0 mm 0.00 in/hr0.0 mm/hr 0.00 in0.0 mm
02:40 AM 30.5°F-0.8°C 29.5°F-1.4°C 96% 12.0 mph N19.3 kmh N 13.0 mph20.9 kmh 29.98 in1015.2 mb 0.00 in0.0 mm 0.00 in/hr0.0 mm/hr 0.00 in0.0 mm
02:25 AM 30.5°F-0.8°C 29.5°F-1.4°C 96% 6.0 mph NW9.7 kmh NW 14.0 mph22.5 kmh 29.98 in1015.2 mb 0.00 in0.0 mm 0.00 in/hr0.0 mm/hr 0.00 in0.0 mm
02:10 AM 30.6°F-0.8°C 29.6°F-1.3°C 96% 10.0 mph NW16.1 kmh NW 14.0 mph22.5 kmh 29.98 in1015.2 mb 0.00 in0.0 mm 0.00 in/hr0.0 mm/hr 0.00 in0.0 mm
01:55 AM 30.7°F-0.7°C 29.7°F-1.3°C 96% 2.0 mph NW3.2 kmh NW 12.0 mph19.3 kmh 29.99 in1015.6 mb 0.00 in0.0 mm 0.00 in/hr0.0 mm/hr 0.00 in0.0 mm
01:40 AM 30.8°F-0.7°C 29.8°F-1.2°C 96% 10.0 mph NW16.1 kmh NW 14.0 mph22.5 kmh 29.98 in1015.2 mb 0.00 in0.0 mm 0.00 in/hr0.0 mm/hr 0.00 in0.0 mm
01:25 AM 30.8°F-0.7°C 29.8°F-1.2°C 96% 3.0 mph NW4.8 kmh NW 13.0 mph20.9 kmh 29.98 in1015.2 mb 0.00 in0.0 mm 0.00 in/hr0.0 mm/hr 0.00 in0.0 mm
01:10 AM 31.2°F-0.4°C 30.2°F-1.0°C 96% 3.0 mph NW4.8 kmh NW 13.0 mph20.9 kmh 29.98 in1015.2 mb 0.00 in0.0 mm 0.00 in/hr0.0 mm/hr 0.00 in0.0 mm
12:55 AM 31.3°F-0.4°C 30.3°F-0.9°C 96% 9.0 mph NW14.5 kmh NW 14.0 mph22.5 kmh 29.98 in1015.2 mb 0.00 in0.0 mm 0.00 in/hr0.0 mm/hr 0.00 in0.0 mm
12:40 AM 31.6°F-0.2°C 30.6°F-0.8°C 96% 11.0 mph NW17.7 kmh NW 15.0 mph24.1 kmh 29.98 in1015.2 mb 0.00 in0.0 mm 0.00 in/hr0.0 mm/hr 0.00 in0.0 mm
12:25 AM 31.8°F-0.1°C 30.8°F-0.7°C 96% 4.0 mph N6.4 kmh N 13.0 mph20.9 kmh 29.98 in1015.2 mb 0.00 in0.0 mm 0.00 in/hr0.0 mm/hr 0.00 in0.0 mm
12:10 AM 32.1°F0.1°C 31.1°F-0.5°C 96% 9.0 mph NW14.5 kmh NW 12.0 mph19.3 kmh 29.99 in1015.6 mb 0.00 in0.0 mm 0.00 in/hr0.0 mm/hr 0.00 in0.0 mm